Time;durP1;ratioP1;P1;durP2;ratioP2;P2;SDS_P1;SDS_P2;PMS_P1;PMS_P2;Temp;Humidity;BMP_temperature;BMP_pressure;BME280_temperature;BME280_humidity;BME280_pressure;Samples;Min_cycle;Max_cycle;Signal;HPM_P1;HPM_P2
2021/03/19 00:01:32;;;;;;;5.67;1.60;;;;;;;;;;5021772;28;38015;-77
2021/03/19 00:03:59;;;;;;;4.37;1.77;;;;;;;;;;5030208;28;39445;-78
2021/03/19 00:06:25;;;;;;;6.07;1.80;;;;;;;;;;5022303;28;39758;-78
2021/03/19 00:08:52;;;;;;;8.47;2.00;;;;;;;;;;5027099;28;38392;-79
2021/03/19 00:11:18;;;;;;;6.03;1.50;;;;;;;;;;5024813;28;40581;-81
2021/03/19 00:13:45;;;;;;;4.40;1.83;;;;;;;;;;5042548;28;38763;-82
2021/03/19 00:16:12;;;;;;;7.67;1.90;;;;;;;;;;5050756;27;39000;-81
2021/03/19 00:18:38;;;;;;;8.80;1.90;;;;;;;;;;5045748;28;37679;-78
2021/03/19 00:21:05;;;;;;;5.70;1.50;;;;;;;;;;5039502;28;41308;-76
2021/03/19 00:23:32;;;;;;;5.70;2.23;;;;;;;;;;5045633;28;39105;-78
2021/03/19 00:25:58;;;;;;;3.70;1.57;;;;;;;;;;5051116;28;38276;-80
2021/03/19 00:28:25;;;;;;;4.53;1.63;;;;;;;;;;5046051;27;37936;-77
2021/03/19 00:30:51;;;;;;;5.20;1.93;;;;;;;;;;5032808;28;39880;-78
2021/03/19 00:33:17;;;;;;;10.43;2.33;;;;;;;;;;5023659;28;38844;-78
2021/03/19 00:35:44;;;;;;;4.40;2.07;;;;;;;;;;5016409;28;37923;-80
2021/03/19 00:38:11;;;;;;;3.77;1.70;;;;;;;;;;5024375;28;37751;-79
2021/03/19 00:40:39;;;;;;;3.63;1.50;;;;;;;;;;5020545;28;40777;-78
2021/03/19 00:43:07;;;;;;;3.93;2.00;;;;;;;;;;5027563;28;41442;-79
2021/03/19 00:45:33;;;;;;;3.47;1.83;;;;;;;;;;5021173;28;38581;-80
2021/03/19 00:48:00;;;;;;;6.03;1.60;;;;;;;;;;5030074;28;37257;-81
2021/03/19 00:50:31;;;;;;;2.40;1.60;;;;;;;;;;5024518;28;38521;-79
2021/03/19 00:52:58;;;;;;;3.10;1.63;;;;;;;;;;5020388;28;39719;-80
2021/03/19 00:55:25;;;;;;;4.90;1.70;;;;;;;;;;5022808;28;39019;-80
2021/03/19 00:57:51;;;;;;;5.43;1.87;;;;;;;;;;5023480;28;37880;-77
2021/03/19 01:00:18;;;;;;;4.83;1.90;;;;;;;;;;5027675;28;41027;-78
2021/03/19 01:02:44;;;;;;;2.43;1.60;;;;;;;;;;5023041;28;39785;-80
2021/03/19 01:05:13;;;;;;;6.23;2.10;;;;;;;;;;5026726;28;38471;-79
2021/03/19 01:07:39;;;;;;;4.23;2.00;;;;;;;;;;5021693;28;36921;-78
2021/03/19 01:10:07;;;;;;;6.37;1.73;;;;;;;;;;5024914;28;37419;-81
2021/03/19 01:12:34;;;;;;;5.37;1.87;;;;;;;;;;5043342;28;39300;-79
2021/03/19 01:15:00;;;;;;;5.63;2.53;;;;;;;;;;5024791;28;38955;-81
2021/03/19 01:17:27;;;;;;;5.87;2.33;;;;;;;;;;5028103;28;35285;-77
2021/03/19 01:19:53;;;;;;;5.60;2.37;;;;;;;;;;5021688;28;39424;-78
2021/03/19 01:22:19;;;;;;;3.67;2.40;;;;;;;;;;5015992;28;39549;-78
2021/03/19 01:24:46;;;;;;;7.97;2.40;;;;;;;;;;5037638;28;39946;-78
2021/03/19 01:27:12;;;;;;;4.67;2.30;;;;;;;;;;5023771;28;38372;-80
2021/03/19 01:29:38;;;;;;;4.63;3.00;;;;;;;;;;5023492;28;40265;-77
2021/03/19 01:32:05;;;;;;;4.17;2.67;;;;;;;;;;5017933;28;38877;-78
2021/03/19 01:34:31;;;;;;;5.37;2.70;;;;;;;;;;5025451;28;38760;-79
2021/03/19 01:36:58;;;;;;;6.07;2.73;;;;;;;;;;5027350;28;36759;-80
2021/03/19 01:39:24;;;;;;;4.20;3.07;;;;;;;;;;5021417;28;38853;-80
2021/03/19 01:41:52;;;;;;;6.60;3.23;;;;;;;;;;5012988;28;38327;-80
2021/03/19 01:44:24;;;;;;;7.23;3.10;;;;;;;;;;5039742;28;38990;-79
2021/03/19 01:47:09;;;;;;;5.72;3.00;;;;;;;;;;5020800;28;37052;-80
2021/03/19 01:49:55;;;;;;;6.00;3.30;;;;;;;;;;5030369;28;46993;-79
2021/03/19 01:52:40;;;;;;;6.20;3.37;;;;;;;;;;5028687;28;41842;-77
2021/03/19 01:55:25;;;;;;;5.17;3.50;;;;;;;;;;5021375;28;37108;-82
2021/03/19 01:58:10;;;;;;;5.23;3.73;;;;;;;;;;5029150;28;36105;-79
2021/03/19 02:00:55;;;;;;;8.67;4.20;;;;;;;;;;5032905;28;47437;-77
2021/03/19 02:03:40;;;;;;;4.83;4.20;;;;;;;;;;5020386;28;39561;-82
2021/03/19 02:06:25;;;;;;;4.83;4.17;;;;;;;;;;5030058;28;39005;-77
2021/03/19 02:09:10;;;;;;;5.70;3.33;;;;;;;;;;5025240;28;37006;-77
2021/03/19 02:11:56;;;;;;;4.33;3.53;;;;;;;;;;5016562;28;48182;-77
2021/03/19 02:14:41;;;;;;;7.13;3.77;;;;;;;;;;5057133;28;37821;-79
2021/03/19 02:17:26;;;;;;;9.07;3.93;;;;;;;;;;5055696;28;38789;-77
2021/03/19 02:20:11;;;;;;;10.83;4.13;;;;;;;;;;5047960;28;35400;-84
2021/03/19 02:22:56;;;;;;;7.10;3.93;;;;;;;;;;5040919;28;47309;-78
2021/03/19 02:25:41;;;;;;;8.13;3.90;;;;;;;;;;5051697;27;38900;-76
2021/03/19 02:28:26;;;;;;;8.83;4.30;;;;;;;;;;5043290;28;38721;-76
2021/03/19 02:31:12;;;;;;;7.87;4.13;;;;;;;;;;5045594;28;37235;-79
2021/03/19 02:33:47;;;;;;;8.33;4.47;;;;;;;;;;5046485;28;47087;-76
2021/03/19 02:36:17;;;;;;;9.10;4.83;;;;;;;;;;5069619;27;39462;-79
2021/03/19 02:38:43;;;;;;;6.27;4.50;;;;;;;;;;5041740;27;38156;-80
2021/03/19 02:41:10;;;;;;;6.53;4.50;;;;;;;;;;5026396;28;37524;-81
2021/03/19 02:43:36;;;;;;;6.67;4.47;;;;;;;;;;5021141;28;37611;-83
2021/03/19 02:46:03;;;;;;;9.07;4.60;;;;;;;;;;5042321;28;38859;-78
2021/03/19 02:48:30;;;;;;;11.33;5.47;;;;;;;;;;5016221;28;38028;-79
2021/03/19 02:50:56;;;;;;;9.43;5.43;;;;;;;;;;5017317;28;37125;-79
2021/03/19 02:53:24;;;;;;;11.37;5.40;;;;;;;;;;5019115;28;40001;-79
2021/03/19 02:55:51;;;;;;;8.47;5.50;;;;;;;;;;5068187;27;38364;-77
2021/03/19 02:58:17;;;;;;;10.30;6.53;;;;;;;;;;5049488;28;39610;-78
2021/03/19 03:00:44;;;;;;;12.77;6.40;;;;;;;;;;5043021;28;35079;-79
2021/03/19 03:03:10;;;;;;;11.33;5.60;;;;;;;;;;5048019;28;40467;-78
2021/03/19 03:05:37;;;;;;;9.63;6.43;;;;;;;;;;5044932;28;38603;-76
2021/03/19 03:08:04;;;;;;;15.03;7.17;;;;;;;;;;5050626;27;39258;-76
2021/03/19 03:10:31;;;;;;;10.33;6.43;;;;;;;;;;5046682;27;37367;-76
2021/03/19 03:12:58;;;;;;;16.37;7.73;;;;;;;;;;5046651;28;38852;-78
2021/03/19 03:15:24;;;;;;;11.27;6.67;;;;;;;;;;5057671;27;39400;-78
2021/03/19 03:17:51;;;;;;;15.30;6.70;;;;;;;;;;5060854;28;38961;-78
2021/03/19 03:20:20;;;;;;;12.60;7.23;;;;;;;;;;5045703;28;37142;-78
2021/03/19 03:22:46;;;;;;;11.40;6.50;;;;;;;;;;5035256;28;39798;-79
2021/03/19 03:25:14;;;;;;;10.00;6.30;;;;;;;;;;5045274;27;39117;-76
2021/03/19 03:27:40;;;;;;;15.70;6.43;;;;;;;;;;5050988;28;39923;-76
2021/03/19 03:30:09;;;;;;;17.13;6.47;;;;;;;;;;5047332;27;35313;-81
2021/03/19 03:32:35;;;;;;;17.57;7.50;;;;;;;;;;5052744;27;39225;-77
2021/03/19 03:35:02;;;;;;;11.33;6.53;;;;;;;;;;5041651;27;38938;-79
2021/03/19 03:37:28;;;;;;;14.40;6.73;;;;;;;;;;5050447;28;38916;-78
2021/03/19 03:39:55;;;;;;;14.23;6.60;;;;;;;;;;5044590;28;37652;-79
2021/03/19 03:42:21;;;;;;;19.70;6.60;;;;;;;;;;5041476;28;40574;-79
2021/03/19 03:44:47;;;;;;;14.00;6.40;;;;;;;;;;5045248;27;38279;-78
2021/03/19 03:47:14;;;;;;;16.03;7.30;;;;;;;;;;5046565;28;37825;-78
2021/03/19 03:49:40;;;;;;;14.20;6.93;;;;;;;;;;5055817;27;36756;-80
2021/03/19 03:52:07;;;;;;;13.60;6.20;;;;;;;;;;5057058;27;40860;-78
2021/03/19 03:54:33;;;;;;;9.73;6.27;;;;;;;;;;5046207;27;39262;-82
2021/03/19 03:56:59;;;;;;;10.83;7.00;;;;;;;;;;5060856;27;37130;-79
2021/03/19 03:59:26;;;;;;;12.90;6.90;;;;;;;;;;5044650;27;36266;-79
2021/03/19 04:01:53;;;;;;;15.23;7.23;;;;;;;;;;5055707;28;39300;-82
2021/03/19 04:04:20;;;;;;;17.70;7.13;;;;;;;;;;5051742;28;37858;-79
2021/03/19 04:06:46;;;;;;;15.03;7.37;;;;;;;;;;5047669;28;39194;-82
2021/03/19 04:09:13;;;;;;;22.07;7.20;;;;;;;;;;5048193;27;36804;-77
2021/03/19 04:11:39;;;;;;;15.00;7.90;;;;;;;;;;5067650;27;37610;-82
2021/03/19 04:14:06;;;;;;;13.43;7.00;;;;;;;;;;5045202;28;38405;-81
2021/03/19 04:16:32;;;;;;;12.90;7.30;;;;;;;;;;5046841;27;38691;-81
2021/03/19 04:18:59;;;;;;;17.50;8.27;;;;;;;;;;5055429;27;35902;-77
2021/03/19 04:21:25;;;;;;;15.90;7.80;;;;;;;;;;5048784;27;39020;-79
2021/03/19 04:23:52;;;;;;;18.70;8.00;;;;;;;;;;5038096;28;39455;-79
2021/03/19 04:26:18;;;;;;;16.67;9.37;;;;;;;;;;5032618;28;38780;-82
2021/03/19 04:28:45;;;;;;;13.03;8.03;;;;;;;;;;5024042;28;38452;-83
2021/03/19 04:31:11;;;;;;;15.33;8.67;;;;;;;;;;5027548;28;39796;-81
2021/03/19 04:33:37;;;;;;;14.80;9.97;;;;;;;;;;5026882;28;39055;-77
2021/03/19 04:36:21;;;;;;;16.90;8.20;;;;;;;;;;5021519;28;38972;-79
2021/03/19 04:38:47;;;;;;;15.83;9.13;;;;;;;;;;5027825;28;37824;-80
2021/03/19 04:41:14;;;;;;;16.47;8.63;;;;;;;;;;5031758;28;39926;-80
2021/03/19 04:43:40;;;;;;;20.73;8.90;;;;;;;;;;5033913;28;39941;-82
2021/03/19 04:46:07;;;;;;;17.97;9.10;;;;;;;;;;5028920;28;37673;-79
2021/03/19 04:48:33;;;;;;;14.60;8.63;;;;;;;;;;5024277;28;37604;-80
2021/03/19 04:50:59;;;;;;;18.17;9.43;;;;;;;;;;5034611;28;38727;-79
2021/03/19 04:53:26;;;;;;;15.17;8.50;;;;;;;;;;5026806;28;38708;-78
2021/03/19 04:55:52;;;;;;;19.20;7.67;;;;;;;;;;5027799;28;37640;-79
2021/03/19 04:58:19;;;;;;;20.07;9.30;;;;;;;;;;5045651;28;37138;-80
2021/03/19 05:00:45;;;;;;;17.43;9.03;;;;;;;;;;5042134;28;38817;-77
2021/03/19 05:03:11;;;;;;;17.93;8.97;;;;;;;;;;5053559;27;39567;-77
2021/03/19 05:05:38;;;;;;;16.33;9.63;;;;;;;;;;5044486;27;37646;-81
2021/03/19 05:08:04;;;;;;;17.40;10.03;;;;;;;;;;5047623;28;38622;-77
2021/03/19 05:10:33;;;;;;;22.43;10.37;;;;;;;;;;5049100;27;39436;-82
2021/03/19 05:12:59;;;;;;;22.23;9.33;;;;;;;;;;5051869;27;37924;-78
2021/03/19 05:15:27;;;;;;;16.13;9.67;;;;;;;;;;5046777;27;38295;-80
2021/03/19 05:17:53;;;;;;;18.60;9.57;;;;;;;;;;5059116;28;38208;-76
2021/03/19 05:20:20;;;;;;;22.63;11.30;;;;;;;;;;5036025;28;39792;-78
2021/03/19 05:22:46;;;;;;;20.67;9.77;;;;;;;;;;5057390;27;38614;-82
2021/03/19 05:25:15;;;;;;;19.97;10.23;;;;;;;;;;5057164;28;39512;-82
2021/03/19 05:27:42;;;;;;;15.60;8.67;;;;;;;;;;5047905;28;38295;-78
2021/03/19 05:30:09;;;;;;;19.33;10.20;;;;;;;;;;5048695;28;40066;-77
2021/03/19 05:32:36;;;;;;;18.23;10.10;;;;;;;;;;5056136;28;37393;-79
2021/03/19 05:35:03;;;;;;;25.20;11.07;;;;;;;;;;5040230;28;39282;-78
2021/03/19 05:37:29;;;;;;;22.87;10.60;;;;;;;;;;5050243;27;37276;-76
2021/03/19 05:39:56;;;;;;;19.63;9.90;;;;;;;;;;5045596;28;39079;-83
2021/03/19 05:42:25;;;;;;;19.37;10.33;;;;;;;;;;5047882;27;38405;-76
2021/03/19 05:44:58;;;;;;;18.03;10.57;;;;;;;;;;5055534;27;39053;-78
2021/03/19 05:47:24;;;;;;;;;;;;;;;;;;5046209;28;37226;-78
2021/03/19 05:49:54;;;;;;;25.20;10.67;;;;;;;;;;5057063;27;39483;-77
2021/03/19 05:52:23;;;;;;;22.97;11.03;;;;;;;;;;5053707;27;39943;-77
2021/03/19 05:54:50;;;;;;;18.50;9.63;;;;;;;;;;5038558;28;39056;-78
2021/03/19 05:57:21;;;;;;;17.47;9.07;;;;;;;;;;5044291;28;37241;-78
2021/03/19 05:59:49;;;;;;;17.87;9.67;;;;;;;;;;5056069;27;39687;-78
2021/03/19 06:02:17;;;;;;;19.03;10.13;;;;;;;;;;5057403;27;38812;-78
2021/03/19 06:04:44;;;;;;;22.33;11.37;;;;;;;;;;5042745;27;38443;-75
2021/03/19 06:07:10;;;;;;;20.10;10.30;;;;;;;;;;5039647;28;37714;-78
2021/03/19 06:09:45;;;;;;;19.30;11.03;;;;;;;;;;5031894;28;38201;-77
2021/03/19 06:12:17;;;;;;;23.47;11.93;;;;;;;;;;5043821;27;39469;-75
2021/03/19 06:14:51;;;;;;;22.95;11.02;;;;;;;;;;5057215;27;38827;-77
2021/03/19 06:17:29;;;;;;;22.90;10.63;;;;;;;;;;5050589;27;37739;-78
2021/03/19 06:19:58;;;;;;;22.77;11.17;;;;;;;;;;5063994;27;40877;-78
2021/03/19 06:22:43;;;;;;;17.33;10.53;;;;;;;;;;5039704;27;39059;-78
2021/03/19 06:25:18;;;;;;;20.57;10.63;;;;;;;;;;5021689;28;37254;-77
2021/03/19 06:27:49;;;;;;;19.53;10.77;;;;;;;;;;5026883;28;37072;-77
2021/03/19 06:30:22;;;;;;;25.27;11.60;;;;;;;;;;5023202;28;39780;-78
2021/03/19 06:32:48;;;;;;;;;;;;;;;;;;5018772;28;38879;-75
2021/03/19 06:35:15;;;;;;;28.73;10.20;;;;;;;;;;5020827;28;38095;-75
2021/03/19 06:37:43;;;;;;;15.43;10.70;;;;;;;;;;5018053;28;36684;-74
2021/03/19 06:40:18;;;;;;;24.07;9.97;;;;;;;;;;5019375;28;39806;-75
2021/03/19 06:42:44;;;;;;;15.20;10.17;;;;;;;;;;5022215;28;39340;-75
2021/03/19 06:45:19;;;;;;;21.90;11.43;;;;;;;;;;5018856;28;39539;-76
2021/03/19 06:47:46;;;;;;;22.90;10.83;;;;;;;;;;5015561;28;36929;-76
2021/03/19 06:50:25;;;;;;;25.97;10.27;;;;;;;;;;5015006;28;38491;-77
2021/03/19 06:52:52;;;;;;;21.40;8.97;;;;;;;;;;5021373;28;38056;-77
2021/03/19 06:55:33;;;;;;;19.07;8.83;;;;;;;;;;5025972;28;38979;-76
2021/03/19 06:58:00;;;;;;;15.47;8.37;;;;;;;;;;5029763;28;35882;-76
2021/03/19 07:00:33;;;;;;;17.00;8.67;;;;;;;;;;5058038;27;39227;-78
2021/03/19 07:03:04;;;;;;;18.00;9.07;;;;;;;;;;5055835;27;39114;-76
2021/03/19 07:05:30;;;;;;;24.07;9.93;;;;;;;;;;5039689;28;46945;-77
2021/03/19 07:08:12;;;;;;;33.40;10.47;;;;;;;;;;5039295;28;37256;-76
2021/03/19 07:10:46;;;;;;;12.83;8.27;;;;;;;;;;5055251;27;47443;-75
2021/03/19 07:13:18;;;;;;;20.07;10.10;;;;;;;;;;5042888;28;39288;-78
2021/03/19 07:16:02;;;;;;;22.50;10.57;;;;;;;;;;5039119;28;38210;-76
2021/03/19 07:18:35;;;;;;;18.87;8.70;;;;;;;;;;5042564;28;48766;-77
2021/03/19 07:21:20;;;;;;;20.63;9.18;;;;;;;;;;5032667;28;39954;-76
2021/03/19 07:24:05;;;;;;;20.00;9.00;;;;;;;;;;5036550;28;49174;-76
2021/03/19 07:26:33;;;;;;;21.17;8.80;;;;;;;;;;5043194;28;48358;-75
2021/03/19 07:29:09;;;;;;;21.57;10.37;;;;;;;;;;5046902;28;37086;-76
2021/03/19 07:31:35;;;;;;;16.20;8.10;;;;;;;;;;5044027;28;48503;-76
2021/03/19 07:34:01;;;;;;;17.10;8.37;;;;;;;;;;5036730;28;39151;-76
2021/03/19 07:36:37;;;;;;;22.93;8.53;;;;;;;;;;5037978;28;39848;-77
2021/03/19 07:39:03;;;;;;;20.83;7.80;;;;;;;;;;5033139;28;36479;-75
2021/03/19 07:41:50;;;;;;;15.20;7.03;;;;;;;;;;5019521;28;39709;-75
2021/03/19 07:44:16;;;;;;;15.17;7.27;;;;;;;;;;5005276;28;38656;-75
2021/03/19 07:46:43;;;;;;;21.10;8.60;;;;;;;;;;5032143;28;39224;-77
2021/03/19 07:49:47;;;;;;;16.73;7.70;;;;;;;;;;5020402;28;37634;-75
2021/03/19 07:52:32;;;;;;;20.20;6.47;;;;;;;;;;5020645;28;39756;-76
2021/03/19 07:55:03;;;;;;;12.80;6.43;;;;;;;;;;5020874;28;38493;-78
2021/03/19 07:57:36;;;;;;;25.83;8.30;;;;;;;;;;5017282;28;48745;-73
2021/03/19 08:00:03;;;;;;;16.07;6.60;;;;;;;;;;5033468;28;37765;-74
2021/03/19 08:02:41;;;;;;;19.20;6.70;;;;;;;;;;5018651;28;38888;-75
2021/03/19 08:05:25;;;;;;;13.70;6.30;;;;;;;;;;5021139;28;39242;-76
2021/03/19 08:08:06;;;;;;;19.87;6.70;;;;;;;;;;5023913;28;38303;-77
2021/03/19 08:10:45;;;;;;;13.60;5.90;;;;;;;;;;5022981;28;47123;-75
2021/03/19 08:13:30;;;;;;;18.77;5.27;;;;;;;;;;5026793;28;38696;-78
2021/03/19 08:16:01;;;;;;;10.17;5.53;;;;;;;;;;5027510;28;38032;-76
2021/03/19 08:18:37;;;;;;;19.93;5.17;;;;;;;;;;5042161;28;41686;-77
2021/03/19 08:21:10;;;;;;;12.70;4.67;;;;;;;;;;5024534;28;37329;-79
2021/03/19 08:23:55;;;;;;;8.73;5.07;;;;;;;;;;5037418;28;39661;-75
2021/03/19 08:26:29;;;;;;;12.83;5.00;;;;;;;;;;5044843;28;39017;-75
2021/03/19 08:29:00;;;;;;;18.37;5.10;;;;;;;;;;5061053;28;36956;-75
2021/03/19 08:31:47;;;;;;;12.43;4.73;;;;;;;;;;5042733;28;38350;-74
2021/03/19 08:34:32;;;;;;;13.70;4.93;;;;;;;;;;5077571;27;37734;-75
2021/03/19 08:36:58;;;;;;;16.93;4.80;;;;;;;;;;5042984;28;38244;-75
2021/03/19 08:39:37;;;;;;;12.70;4.27;;;;;;;;;;5044276;28;38484;-76
2021/03/19 08:42:05;;;;;;;12.57;4.27;;;;;;;;;;5037700;28;36726;-75
2021/03/19 08:44:36;;;;;;;11.73;4.00;;;;;;;;;;5056935;27;39620;-75
2021/03/19 08:47:11;;;;;;;11.50;4.13;;;;;;;;;;5056400;28;38430;-75
2021/03/19 08:49:41;;;;;;;11.67;4.83;;;;;;;;;;5048253;28;38921;-77
2021/03/19 08:52:36;;;;;;;8.23;3.90;;;;;;;;;;5045404;28;36172;-75
2021/03/19 08:55:15;;;;;;;8.90;3.70;;;;;;;;;;5032154;28;39979;-74
2021/03/19 08:57:43;;;;;;;11.53;3.87;;;;;;;;;;5043700;27;38530;-75
2021/03/19 09:00:22;;;;;;;9.50;3.20;;;;;;;;;;5036188;28;38289;-75
2021/03/19 09:03:00;;;;;;;8.93;3.60;;;;;;;;;;5031520;28;38220;-78
2021/03/19 09:05:29;;;;;;;9.13;3.40;;;;;;;;;;5043545;28;37888;-76
2021/03/19 09:08:14;;;;;;;9.37;3.30;;;;;;;;;;5044337;28;39258;-76
2021/03/19 09:10:41;;;;;;;8.83;3.67;;;;;;;;;;5058164;27;48134;-76
2021/03/19 09:13:08;;;;;;;12.13;3.03;;;;;;;;;;5043304;28;40371;-76
2021/03/19 09:15:37;;;;;;;6.43;2.97;;;;;;;;;;5057016;27;39315;-79
2021/03/19 09:18:03;;;;;;;11.87;4.33;;;;;;;;;;5038043;28;38189;-74
2021/03/19 09:20:41;;;;;;;12.27;3.90;;;;;;;;;;5059230;27;40396;-74
2021/03/19 09:23:10;;;;;;;7.93;3.87;;;;;;;;;;5035035;28;37644;-74
2021/03/19 09:25:56;;;;;;;10.53;3.40;;;;;;;;;;5056426;27;39391;-74
2021/03/19 09:28:25;;;;;;;6.23;3.07;;;;;;;;;;5053178;28;39286;-77
2021/03/19 09:30:55;;;;;;;7.40;3.13;;;;;;;;;;5044300;28;38535;-75
2021/03/19 09:33:40;;;;;;;9.70;3.00;;;;;;;;;;5023045;28;37191;-80
2021/03/19 09:36:06;;;;;;;8.07;3.40;;;;;;;;;;5046018;28;37978;-76
2021/03/19 09:38:32;;;;;;;8.87;3.13;;;;;;;;;;5044463;28;39405;-76
2021/03/19 09:41:00;;;;;;;6.53;3.00;;;;;;;;;;5041230;28;37959;-77
2021/03/19 09:43:39;;;;;;;7.40;3.13;;;;;;;;;;5040642;28;36925;-77
2021/03/19 09:46:07;;;;;;;8.60;4.27;;;;;;;;;;5040909;28;39076;-76
2021/03/19 09:48:34;;;;;;;7.33;2.90;;;;;;;;;;5044762;28;39552;-74
2021/03/19 09:51:04;;;;;;;9.23;3.70;;;;;;;;;;5043184;28;39552;-75
2021/03/19 09:53:38;;;;;;;12.50;3.93;;;;;;;;;;5040349;28;49185;-75
2021/03/19 09:56:15;;;;;;;7.97;2.60;;;;;;;;;;5033963;28;37896;-74
2021/03/19 09:58:44;;;;;;;6.17;2.93;;;;;;;;;;5048203;27;40062;-74
2021/03/19 10:01:15;;;;;;;7.23;3.37;;;;;;;;;;5044383;28;39429;-74
2021/03/19 10:03:42;;;;;;;7.97;2.73;;;;;;;;;;5056460;27;36741;-73
2021/03/19 10:06:27;;;;;;;8.33;3.07;;;;;;;;;;5060292;27;39580;-74
2021/03/19 10:09:08;;;;;;;6.90;2.50;;;;;;;;;;5035344;28;38871;-75
2021/03/19 10:11:35;;;;;;;6.37;2.73;;;;;;;;;;5059992;27;47347;-75
2021/03/19 10:14:15;;;;;;;6.27;2.70;;;;;;;;;;5030932;28;37074;-76
2021/03/19 10:16:41;;;;;;;6.43;2.60;;;;;;;;;;5037514;28;48911;-75
2021/03/19 10:19:14;;;;;;;5.83;2.73;;;;;;;;;;5033569;28;39622;-75
2021/03/19 10:21:45;;;;;;;5.45;2.55;;;;;;;;;;5060305;28;39747;-75
2021/03/19 10:24:12;;;;;;;8.37;2.60;;;;;;;;;;5033028;28;36820;-76
2021/03/19 10:26:39;;;;;;;7.30;2.70;;;;;;;;;;5036444;28;39563;-77
2021/03/19 10:29:08;;;;;;;6.47;2.60;;;;;;;;;;5042627;28;39117;-76
2021/03/19 10:31:38;;;;;;;7.37;2.90;;;;;;;;;;5060114;27;38311;-77
2021/03/19 10:34:06;;;;;;;10.40;2.40;;;;;;;;;;5056158;27;38552;-77
2021/03/19 10:36:35;;;;;;;6.00;2.10;;;;;;;;;;5043123;28;39986;-77
2021/03/19 10:39:08;;;;;;;9.53;2.27;;;;;;;;;;5041545;28;38505;-78
2021/03/19 10:41:49;;;;;;;2.85;1.70;;;;;;;;;;5054213;27;39605;-76
2021/03/19 10:44:21;;;;;;;7.17;2.00;;;;;;;;;;5057037;27;35903;-75
2021/03/19 10:46:50;;;;;;;5.60;2.40;;;;;;;;;;5041875;28;38964;-75
2021/03/19 10:49:19;;;;;;;5.10;2.27;;;;;;;;;;5055604;28;38668;-74
2021/03/19 10:51:48;;;;;;;8.30;2.30;;;;;;;;;;5061491;27;38089;-76
2021/03/19 10:54:18;;;;;;;4.50;1.93;;;;;;;;;;5048794;28;36753;-77
2021/03/19 10:56:51;;;;;;;4.17;1.93;;;;;;;;;;5042888;28;38682;-73
2021/03/19 10:59:21;;;;;;;9.80;2.50;;;;;;;;;;5052545;28;39029;-74
2021/03/19 11:01:49;;;;;;;6.50;2.13;;;;;;;;;;5040314;28;38350;-73
2021/03/19 11:04:35;;;;;;;5.43;2.17;;;;;;;;;;5021417;28;37594;-74
2021/03/19 11:07:42;;;;;;;8.57;2.30;;;;;;;;;;5030407;28;38140;-74
2021/03/19 11:10:12;;;;;;;3.83;1.90;;;;;;;;;;4958813;28;48823;-73
2021/03/19 11:12:45;;;;;;;8.37;1.73;;;;;;;;;;4926119;28;37228;-74
2021/03/19 11:15:11;;;;;;;3.37;1.60;;;;;;;;;;4995398;28;36631;-74
2021/03/19 11:17:38;;;;;;;4.40;1.30;;;;;;;;;;5055533;28;38962;-73
2021/03/19 11:20:19;;;;;;;3.77;1.77;;;;;;;;;;5043413;28;37415;-73
2021/03/19 11:22:52;;;;;;;3.57;1.70;;;;;;;;;;5052259;28;37828;-74
2021/03/19 11:25:38;;;;;;;4.50;1.70;;;;;;;;;;5044445;28;36123;-74
2021/03/19 11:28:12;;;;;;;6.00;1.60;;;;;;;;;;5042864;28;39070;-74
2021/03/19 11:30:38;;;;;;;3.70;1.50;;;;;;;;;;5037077;28;37982;-73
2021/03/19 11:33:07;;;;;;;7.20;1.83;;;;;;;;;;5035343;28;38104;-73
2021/03/19 11:35:34;;;;;;;4.60;1.53;;;;;;;;;;5055525;28;35925;-74
2021/03/19 11:38:01;;;;;;;5.25;2.22;;;;;;;;;;5047526;28;39023;-74
2021/03/19 11:40:42;;;;;;;4.03;2.17;;;;;;;;;;5019907;28;47513;-73
2021/03/19 11:43:09;;;;;;;5.50;1.83;;;;;;;;;;5021119;28;37029;-72
2021/03/19 11:48:15;;;;;;;4.77;2.53;;;;;;;;;;3177965;23;20055;-74
2021/03/19 11:50:43;;;;;;;4.30;1.83;;;;;;;;;;5007857;28;37534;-74
2021/03/19 11:53:12;;;;;;;2.15;1.55;;;;;;;;;;5010615;28;37321;-74
2021/03/19 11:55:49;;;;;;;2.63;1.70;;;;;;;;;;5012199;28;37022;-74
2021/03/19 11:58:16;;;;;;;5.13;2.10;;;;;;;;;;5009359;28;37714;-75
2021/03/19 12:00:43;;;;;;;4.73;1.50;;;;;;;;;;4991411;28;38938;-76
2021/03/19 12:03:24;;;;;;;1.70;1.40;;;;;;;;;;5010394;28;38126;-74
2021/03/19 12:05:51;;;;;;;4.40;1.38;;;;;;;;;;5010233;28;36253;-77
2021/03/19 12:08:17;;;;;;;3.22;1.55;;;;;;;;;;4994330;28;38550;-75
2021/03/19 12:10:44;;;;;;;2.75;1.27;;;;;;;;;;5016759;28;38974;-74
2021/03/19 12:13:15;;;;;;;4.45;1.30;;;;;;;;;;5014637;28;37108;-74
2021/03/19 12:15:42;;;;;;;2.72;1.27;;;;;;;;;;5017887;28;37660;-75
2021/03/19 12:18:09;;;;;;;4.18;1.70;;;;;;;;;;5000727;28;39495;-75
2021/03/19 12:20:35;;;;;;;2.20;1.35;;;;;;;;;;5002047;28;38282;-77
2021/03/19 12:23:01;;;;;;;2.92;1.63;;;;;;;;;;5002505;28;38286;-75
2021/03/19 12:25:30;;;;;;;4.22;1.70;;;;;;;;;;5017135;28;47574;-75
2021/03/19 12:27:58;;;;;;;3.45;1.52;;;;;;;;;;5020197;28;20170;-75
2021/03/19 12:30:25;;;;;;;1.80;1.10;;;;;;;;;;5021007;28;37649;-76
2021/03/19 12:32:53;;;;;;;2.53;1.27;;;;;;;;;;5016564;28;39155;-76
2021/03/19 12:35:21;;;;;;;2.20;1.17;;;;;;;;;;5006820;28;35615;-74
2021/03/19 12:37:47;;;;;;;4.15;1.13;;;;;;;;;;5002327;28;38923;-75
2021/03/19 12:40:14;;;;;;;2.80;1.07;;;;;;;;;;5012618;28;38289;-75
2021/03/19 12:42:40;;;;;;;1.80;0.90;;;;;;;;;;5029206;28;38107;-75
2021/03/19 12:45:08;;;;;;;1.25;1.10;;;;;;;;;;5009597;28;37990;-75
2021/03/19 12:47:34;;;;;;;3.15;1.20;;;;;;;;;;5005073;28;37974;-75
2021/03/19 12:50:01;;;;;;;3.40;1.52;;;;;;;;;;5011105;28;37794;-75
2021/03/19 12:52:27;;;;;;;2.42;1.40;;;;;;;;;;5001502;28;38207;-76
2021/03/19 12:54:54;;;;;;;2.03;1.15;;;;;;;;;;5004151;28;36477;-75
2021/03/19 12:57:20;;;;;;;4.53;1.10;;;;;;;;;;5004195;28;40302;-75
2021/03/19 12:59:46;;;;;;;3.72;1.20;;;;;;;;;;5022004;28;38444;-75
2021/03/19 13:02:13;;;;;;;2.80;1.20;;;;;;;;;;5004760;28;38116;-76
2021/03/19 13:04:40;;;;;;;1.70;1.02;;;;;;;;;;5009686;28;36911;-76
2021/03/19 13:07:09;;;;;;;1.33;0.90;;;;;;;;;;5021741;28;38758;-75
2021/03/19 13:09:36;;;;;;;1.25;1.08;;;;;;;;;;5019320;28;37406;-76
2021/03/19 13:12:04;;;;;;;3.42;1.08;;;;;;;;;;5007737;28;39735;-75
2021/03/19 13:14:30;;;;;;;1.13;0.80;;;;;;;;;;5018327;28;36557;-76
2021/03/19 13:17:00;;;;;;;6.43;1.40;;;;;;;;;;5006375;28;38847;-76
2021/03/19 13:19:27;;;;;;;5.43;1.67;;;;;;;;;;5003988;28;46646;-76
2021/03/19 13:21:54;;;;;;;2.25;1.15;;;;;;;;;;5021721;28;37980;-76
2021/03/19 13:24:21;;;;;;;2.17;1.40;;;;;;;;;;5016484;28;38294;-76
2021/03/19 13:26:47;;;;;;;2.90;1.23;;;;;;;;;;5003810;28;38727;-75
2021/03/19 13:29:14;;;;;;;4.43;1.08;;;;;;;;;;5007898;28;38151;-76
2021/03/19 13:31:41;;;;;;;1.83;1.23;;;;;;;;;;5007482;28;37241;-75
2021/03/19 13:34:08;;;;;;;5.07;1.52;;;;;;;;;;5021049;28;36470;-75
2021/03/19 13:36:35;;;;;;;3.38;1.70;;;;;;;;;;5022739;28;37461;-76
2021/03/19 13:39:03;;;;;;;3.88;1.58;;;;;;;;;;5018417;28;37444;-75
2021/03/19 13:41:31;;;;;;;4.07;1.50;;;;;;;;;;5012370;28;39084;-77
2021/03/19 13:43:58;;;;;;;3.65;1.88;;;;;;;;;;5000661;28;36760;-75
2021/03/19 13:46:25;;;;;;;3.22;1.65;;;;;;;;;;5022576;28;37728;-76
2021/03/19 13:48:51;;;;;;;6.05;2.10;;;;;;;;;;5027133;28;37871;-76
2021/03/19 13:51:17;;;;;;;4.15;1.73;;;;;;;;;;5007673;28;39697;-76
2021/03/19 13:53:44;;;;;;;2.70;1.40;;;;;;;;;;5023028;28;35791;-75
2021/03/19 13:56:11;;;;;;;4.07;1.65;;;;;;;;;;5019843;28;38077;-75
2021/03/19 13:58:38;;;;;;;2.63;1.60;;;;;;;;;;5023028;28;37745;-74
2021/03/19 14:01:06;;;;;;;2.75;1.70;;;;;;;;;;5019228;28;36880;-75
2021/03/19 14:03:33;;;;;;;2.60;1.65;;;;;;;;;;5005746;28;36909;-75
2021/03/19 14:05:59;;;;;;;3.20;1.90;;;;;;;;;;5020058;28;38815;-76
2021/03/19 14:08:28;;;;;;;5.40;1.65;;;;;;;;;;5004529;28;39759;-77
2021/03/19 14:10:55;;;;;;;4.93;1.50;;;;;;;;;;5005376;28;36973;-77
2021/03/19 14:13:22;;;;;;;1.95;1.20;;;;;;;;;;5005950;28;36810;-75
2021/03/19 14:15:49;;;;;;;2.90;1.45;;;;;;;;;;5009976;28;37164;-79
2021/03/19 14:18:16;;;;;;;3.83;1.70;;;;;;;;;;5005912;28;37736;-73
2021/03/19 14:20:44;;;;;;;4.32;1.50;;;;;;;;;;5020648;28;36926;-75
2021/03/19 14:23:11;;;;;;;2.90;1.50;;;;;;;;;;5017160;28;35996;-74
2021/03/19 14:25:37;;;;;;;2.20;1.30;;;;;;;;;;5008425;28;38953;-74
2021/03/19 14:28:05;;;;;;;2.90;1.30;;;;;;;;;;5024402;28;37304;-75
2021/03/19 14:30:34;;;;;;;1.60;1.25;;;;;;;;;;5003788;28;49164;-75
2021/03/19 14:33:00;;;;;;;2.50;1.50;;;;;;;;;;5019580;28;35694;-73
2021/03/19 14:35:27;;;;;;;2.83;1.30;;;;;;;;;;5020055;28;37179;-74
2021/03/19 14:37:54;;;;;;;3.30;1.48;;;;;;;;;;5003438;28;39521;-74
2021/03/19 14:40:26;;;;;;;1.55;1.17;;;;;;;;;;5000145;28;39579;-74
2021/03/19 14:42:52;;;;;;;1.73;1.23;;;;;;;;;;5007698;28;36728;-75
2021/03/19 14:45:19;;;;;;;6.88;1.23;;;;;;;;;;5015547;28;37668;-75
2021/03/19 14:47:45;;;;;;;2.50;1.02;;;;;;;;;;5020874;28;37206;-75
2021/03/19 14:50:13;;;;;;;3.65;1.20;;;;;;;;;;5010298;28;36787;-77
2021/03/19 14:52:40;;;;;;;3.88;1.45;;;;;;;;;;5004070;28;35845;-77
2021/03/19 14:55:08;;;;;;;2.78;1.58;;;;;;;;;;5019907;28;38375;-76
2021/03/19 14:57:34;;;;;;;4.05;1.60;;;;;;;;;;5001902;28;39510;-76